sensor_id;sensor_type;location;lat;lon;timestamp;P1;durP1;ratioP1;P2;durP2;ratioP2
18176;SDS011;9213;50.858;3.964;2023-04-24T00:01:23;30.97;;;19.10;;
18176;SDS011;9213;50.858;3.964;2023-04-24T00:03:50;27.07;;;17.43;;
18176;SDS011;9213;50.858;3.964;2023-04-24T00:06:17;26.90;;;18.27;;
18176;SDS011;9213;50.858;3.964;2023-04-24T00:08:44;29.27;;;18.47;;
18176;SDS011;9213;50.858;3.964;2023-04-24T00:11:11;29.90;;;18.00;;
18176;SDS011;9213;50.858;3.964;2023-04-24T00:13:39;27.17;;;17.87;;
18176;SDS011;9213;50.858;3.964;2023-04-24T00:16:06;31.00;;;17.80;;
18176;SDS011;9213;50.858;3.964;2023-04-24T00:18:33;25.77;;;16.87;;
18176;SDS011;9213;50.858;3.964;2023-04-24T00:21:00;26.37;;;16.67;;
18176;SDS011;9213;50.858;3.964;2023-04-24T00:23:27;28.63;;;16.80;;
18176;SDS011;9213;50.858;3.964;2023-04-24T00:25:54;29.23;;;16.93;;
18176;SDS011;9213;50.858;3.964;2023-04-24T00:28:21;26.27;;;17.17;;
18176;SDS011;9213;50.858;3.964;2023-04-24T00:30:50;26.63;;;16.80;;
18176;SDS011;9213;50.858;3.964;2023-04-24T00:33:17;30.10;;;17.37;;
18176;SDS011;9213;50.858;3.964;2023-04-24T00:35:44;25.67;;;17.17;;
18176;SDS011;9213;50.858;3.964;2023-04-24T00:38:11;30.53;;;17.40;;
18176;SDS011;9213;50.858;3.964;2023-04-24T00:40:38;28.67;;;17.60;;
18176;SDS011;9213;50.858;3.964;2023-04-24T00:43:04;25.73;;;17.03;;
18176;SDS011;9213;50.858;3.964;2023-04-24T00:45:31;27.40;;;17.37;;
18176;SDS011;9213;50.858;3.964;2023-04-24T00:48:00;29.60;;;17.60;;
18176;SDS011;9213;50.858;3.964;2023-04-24T00:50:28;29.83;;;17.57;;
18176;SDS011;9213;50.858;3.964;2023-04-24T00:52:55;27.87;;;17.93;;
18176;SDS011;9213;50.858;3.964;2023-04-24T00:55:22;31.80;;;16.27;;
18176;SDS011;9213;50.858;3.964;2023-04-24T00:57:50;26.10;;;17.17;;
18176;SDS011;9213;50.858;3.964;2023-04-24T01:00:17;25.07;;;16.80;;
18176;SDS011;9213;50.858;3.964;2023-04-24T01:02:44;24.93;;;15.40;;
18176;SDS011;9213;50.858;3.964;2023-04-24T01:05:14;25.10;;;15.77;;
18176;SDS011;9213;50.858;3.964;2023-04-24T01:07:43;27.67;;;16.40;;
18176;SDS011;9213;50.858;3.964;2023-04-24T01:10:13;24.30;;;15.00;;
18176;SDS011;9213;50.858;3.964;2023-04-24T01:12:42;21.70;;;14.80;;
18176;SDS011;9213;50.858;3.964;2023-04-24T01:15:09;20.20;;;13.70;;
18176;SDS011;9213;50.858;3.964;2023-04-24T01:17:36;17.40;;;12.73;;
18176;SDS011;9213;50.858;3.964;2023-04-24T01:20:04;17.10;;;12.83;;
18176;SDS011;9213;50.858;3.964;2023-04-24T01:22:34;19.67;;;12.77;;
18176;SDS011;9213;50.858;3.964;2023-04-24T01:25:01;16.13;;;10.90;;
18176;SDS011;9213;50.858;3.964;2023-04-24T01:27:30;13.53;;;9.80;;
18176;SDS011;9213;50.858;3.964;2023-04-24T01:29:57;14.40;;;10.07;;
18176;SDS011;9213;50.858;3.964;2023-04-24T01:32:24;17.90;;;10.60;;
18176;SDS011;9213;50.858;3.964;2023-04-24T01:34:51;14.00;;;10.70;;
18176;SDS011;9213;50.858;3.964;2023-04-24T01:37:18;15.07;;;11.50;;
18176;SDS011;9213;50.858;3.964;2023-04-24T01:39:46;14.20;;;10.87;;
18176;SDS011;9213;50.858;3.964;2023-04-24T01:42:13;16.90;;;11.73;;
18176;SDS011;9213;50.858;3.964;2023-04-24T01:44:40;18.83;;;12.33;;
18176;SDS011;9213;50.858;3.964;2023-04-24T01:47:08;18.27;;;12.63;;
18176;SDS011;9213;50.858;3.964;2023-04-24T01:49:35;18.87;;;13.87;;
18176;SDS011;9213;50.858;3.964;2023-04-24T01:52:04;17.07;;;12.60;;
18176;SDS011;9213;50.858;3.964;2023-04-24T01:54:31;19.40;;;12.33;;
18176;SDS011;9213;50.858;3.964;2023-04-24T01:56:59;13.80;;;12.00;;
18176;SDS011;9213;50.858;3.964;2023-04-24T01:59:27;18.13;;;12.27;;
18176;SDS011;9213;50.858;3.964;2023-04-24T02:01:54;16.90;;;11.90;;
18176;SDS011;9213;50.858;3.964;2023-04-24T02:04:21;15.50;;;11.17;;
18176;SDS011;9213;50.858;3.964;2023-04-24T02:06:48;18.10;;;12.87;;
18176;SDS011;9213;50.858;3.964;2023-04-24T02:09:15;22.10;;;12.93;;
18176;SDS011;9213;50.858;3.964;2023-04-24T02:11:42;19.33;;;13.60;;
18176;SDS011;9213;50.858;3.964;2023-04-24T02:14:11;22.07;;;13.47;;
18176;SDS011;9213;50.858;3.964;2023-04-24T02:16:38;21.27;;;13.63;;
18176;SDS011;9213;50.858;3.964;2023-04-24T02:19:04;19.60;;;13.10;;
18176;SDS011;9213;50.858;3.964;2023-04-24T02:21:31;19.77;;;13.53;;
18176;SDS011;9213;50.858;3.964;2023-04-24T02:23:59;21.23;;;13.43;;
18176;SDS011;9213;50.858;3.964;2023-04-24T02:26:26;21.03;;;12.43;;
18176;SDS011;9213;50.858;3.964;2023-04-24T02:28:53;18.90;;;12.53;;
18176;SDS011;9213;50.858;3.964;2023-04-24T02:31:21;19.70;;;12.20;;
18176;SDS011;9213;50.858;3.964;2023-04-24T02:33:48;22.50;;;13.83;;
18176;SDS011;9213;50.858;3.964;2023-04-24T02:36:15;18.57;;;12.07;;
18176;SDS011;9213;50.858;3.964;2023-04-24T02:38:42;19.57;;;12.37;;
18176;SDS011;9213;50.858;3.964;2023-04-24T02:41:09;15.17;;;12.03;;
18176;SDS011;9213;50.858;3.964;2023-04-24T02:43:36;18.77;;;11.27;;
18176;SDS011;9213;50.858;3.964;2023-04-24T02:46:03;20.40;;;12.63;;
18176;SDS011;9213;50.858;3.964;2023-04-24T02:50:59;18.03;;;12.20;;
18176;SDS011;9213;50.858;3.964;2023-04-24T02:53:26;16.90;;;12.17;;
18176;SDS011;9213;50.858;3.964;2023-04-24T02:55:54;17.03;;;11.50;;
18176;SDS011;9213;50.858;3.964;2023-04-24T02:58:21;20.07;;;12.33;;
18176;SDS011;9213;50.858;3.964;2023-04-24T03:00:48;17.83;;;12.80;;
18176;SDS011;9213;50.858;3.964;2023-04-24T03:03:19;19.27;;;12.27;;
18176;SDS011;9213;50.858;3.964;2023-04-24T03:05:47;17.67;;;11.70;;
18176;SDS011;9213;50.858;3.964;2023-04-24T03:08:14;19.47;;;12.27;;
18176;SDS011;9213;50.858;3.964;2023-04-24T03:10:41;14.67;;;11.20;;
18176;SDS011;9213;50.858;3.964;2023-04-24T03:13:08;14.90;;;11.07;;
18176;SDS011;9213;50.858;3.964;2023-04-24T03:15:35;15.70;;;11.10;;
18176;SDS011;9213;50.858;3.964;2023-04-24T03:18:02;13.87;;;10.70;;
18176;SDS011;9213;50.858;3.964;2023-04-24T03:20:29;15.70;;;10.87;;
18176;SDS011;9213;50.858;3.964;2023-04-24T03:22:57;14.73;;;10.73;;
18176;SDS011;9213;50.858;3.964;2023-04-24T03:25:24;14.93;;;10.60;;
18176;SDS011;9213;50.858;3.964;2023-04-24T03:27:51;12.63;;;9.70;;
18176;SDS011;9213;50.858;3.964;2023-04-24T03:30:19;16.47;;;10.87;;
18176;SDS011;9213;50.858;3.964;2023-04-24T03:32:46;17.77;;;11.33;;
18176;SDS011;9213;50.858;3.964;2023-04-24T03:35:13;15.97;;;11.30;;
18176;SDS011;9213;50.858;3.964;2023-04-24T03:37:40;17.57;;;11.63;;
18176;SDS011;9213;50.858;3.964;2023-04-24T03:40:09;21.37;;;11.73;;
18176;SDS011;9213;50.858;3.964;2023-04-24T03:42:36;17.20;;;10.80;;
18176;SDS011;9213;50.858;3.964;2023-04-24T03:45:04;16.07;;;10.70;;
18176;SDS011;9213;50.858;3.964;2023-04-24T03:47:32;18.90;;;10.60;;
18176;SDS011;9213;50.858;3.964;2023-04-24T03:49:59;16.57;;;10.50;;
18176;SDS011;9213;50.858;3.964;2023-04-24T03:52:26;17.33;;;10.47;;
18176;SDS011;9213;50.858;3.964;2023-04-24T03:54:52;17.03;;;10.67;;
18176;SDS011;9213;50.858;3.964;2023-04-24T03:57:21;17.90;;;10.67;;
18176;SDS011;9213;50.858;3.964;2023-04-24T03:59:48;14.43;;;10.30;;
18176;SDS011;9213;50.858;3.964;2023-04-24T04:02:15;17.93;;;9.83;;
18176;SDS011;9213;50.858;3.964;2023-04-24T04:04:42;17.53;;;10.40;;
18176;SDS011;9213;50.858;3.964;2023-04-24T04:07:09;17.90;;;10.87;;
18176;SDS011;9213;50.858;3.964;2023-04-24T04:09:37;15.53;;;10.47;;
18176;SDS011;9213;50.858;3.964;2023-04-24T04:12:04;17.43;;;11.40;;
18176;SDS011;9213;50.858;3.964;2023-04-24T04:14:33;20.03;;;12.67;;
18176;SDS011;9213;50.858;3.964;2023-04-24T04:17:00;21.10;;;12.40;;
18176;SDS011;9213;50.858;3.964;2023-04-24T04:19:27;19.47;;;12.70;;
18176;SDS011;9213;50.858;3.964;2023-04-24T04:21:53;20.80;;;13.07;;
18176;SDS011;9213;50.858;3.964;2023-04-24T04:24:21;20.73;;;13.20;;
18176;SDS011;9213;50.858;3.964;2023-04-24T04:26:49;23.27;;;14.13;;
18176;SDS011;9213;50.858;3.964;2023-04-24T04:29:16;18.67;;;13.50;;
18176;SDS011;9213;50.858;3.964;2023-04-24T04:31:45;22.17;;;14.23;;
18176;SDS011;9213;50.858;3.964;2023-04-24T04:34:12;22.57;;;15.33;;
18176;SDS011;9213;50.858;3.964;2023-04-24T04:36:39;27.67;;;15.53;;
18176;SDS011;9213;50.858;3.964;2023-04-24T04:39:06;22.77;;;15.30;;
18176;SDS011;9213;50.858;3.964;2023-04-24T04:41:33;23.87;;;15.63;;
18176;SDS011;9213;50.858;3.964;2023-04-24T04:44:01;24.03;;;15.40;;
18176;SDS011;9213;50.858;3.964;2023-04-24T04:46:29;22.87;;;15.60;;
18176;SDS011;9213;50.858;3.964;2023-04-24T04:49:00;29.77;;;15.87;;
18176;SDS011;9213;50.858;3.964;2023-04-24T04:51:27;28.63;;;16.43;;
18176;SDS011;9213;50.858;3.964;2023-04-24T04:53:55;22.00;;;14.80;;
18176;SDS011;9213;50.858;3.964;2023-04-24T04:56:22;27.73;;;16.27;;
18176;SDS011;9213;50.858;3.964;2023-04-24T04:58:49;25.90;;;16.27;;
18176;SDS011;9213;50.858;3.964;2023-04-24T05:01:16;29.30;;;16.77;;
18176;SDS011;9213;50.858;3.964;2023-04-24T05:03:43;24.97;;;15.37;;
18176;SDS011;9213;50.858;3.964;2023-04-24T05:06:11;27.17;;;15.70;;
18176;SDS011;9213;50.858;3.964;2023-04-24T05:08:38;31.60;;;14.60;;
18176;SDS011;9213;50.858;3.964;2023-04-24T05:11:05;20.57;;;14.37;;
18176;SDS011;9213;50.858;3.964;2023-04-24T05:13:32;20.20;;;14.40;;
18176;SDS011;9213;50.858;3.964;2023-04-24T05:16:00;23.83;;;14.27;;
18176;SDS011;9213;50.858;3.964;2023-04-24T05:18:27;21.73;;;14.37;;
18176;SDS011;9213;50.858;3.964;2023-04-24T05:20:54;22.80;;;14.23;;
18176;SDS011;9213;50.858;3.964;2023-04-24T05:23:22;22.47;;;13.87;;
18176;SDS011;9213;50.858;3.964;2023-04-24T05:25:49;24.10;;;14.30;;
18176;SDS011;9213;50.858;3.964;2023-04-24T05:28:16;21.23;;;13.70;;
18176;SDS011;9213;50.858;3.964;2023-04-24T05:30:43;22.17;;;13.13;;
18176;SDS011;9213;50.858;3.964;2023-04-24T05:33:10;22.13;;;13.80;;
18176;SDS011;9213;50.858;3.964;2023-04-24T05:35:39;24.20;;;15.23;;
18176;SDS011;9213;50.858;3.964;2023-04-24T05:38:10;22.40;;;13.23;;
18176;SDS011;9213;50.858;3.964;2023-04-24T05:40:38;25.57;;;14.03;;
18176;SDS011;9213;50.858;3.964;2023-04-24T05:43:05;22.70;;;15.00;;
18176;SDS011;9213;50.858;3.964;2023-04-24T05:45:32;24.67;;;14.57;;
18176;SDS011;9213;50.858;3.964;2023-04-24T05:48:01;19.43;;;14.10;;
18176;SDS011;9213;50.858;3.964;2023-04-24T05:50:28;26.53;;;15.10;;
18176;SDS011;9213;50.858;3.964;2023-04-24T05:52:54;20.33;;;14.23;;
18176;SDS011;9213;50.858;3.964;2023-04-24T05:55:23;26.40;;;15.17;;
18176;SDS011;9213;50.858;3.964;2023-04-24T05:57:51;25.07;;;15.37;;
18176;SDS011;9213;50.858;3.964;2023-04-24T06:00:18;29.90;;;16.00;;
18176;SDS011;9213;50.858;3.964;2023-04-24T06:02:45;26.80;;;15.70;;
18176;SDS011;9213;50.858;3.964;2023-04-24T06:05:12;28.20;;;16.37;;
18176;SDS011;9213;50.858;3.964;2023-04-24T06:07:39;28.63;;;15.80;;
18176;SDS011;9213;50.858;3.964;2023-04-24T06:10:07;25.57;;;17.23;;
18176;SDS011;9213;50.858;3.964;2023-04-24T06:12:34;31.43;;;17.33;;
18176;SDS011;9213;50.858;3.964;2023-04-24T06:15:03;28.67;;;18.03;;
18176;SDS011;9213;50.858;3.964;2023-04-24T06:17:30;31.17;;;17.80;;
18176;SDS011;9213;50.858;3.964;2023-04-24T06:19:58;29.30;;;17.47;;
18176;SDS011;9213;50.858;3.964;2023-04-24T06:22:24;31.63;;;17.03;;
18176;SDS011;9213;50.858;3.964;2023-04-24T06:24:52;32.87;;;19.10;;
18176;SDS011;9213;50.858;3.964;2023-04-24T06:27:19;29.17;;;18.13;;
18176;SDS011;9213;50.858;3.964;2023-04-24T06:29:45;31.60;;;17.30;;
18176;SDS011;9213;50.858;3.964;2023-04-24T06:32:19;30.03;;;17.37;;
18176;SDS011;9213;50.858;3.964;2023-04-24T06:34:46;29.60;;;16.90;;
18176;SDS011;9213;50.858;3.964;2023-04-24T06:37:13;30.87;;;17.43;;
18176;SDS011;9213;50.858;3.964;2023-04-24T06:39:41;29.27;;;16.67;;
18176;SDS011;9213;50.858;3.964;2023-04-24T06:42:08;31.50;;;16.40;;
18176;SDS011;9213;50.858;3.964;2023-04-24T06:44:35;29.67;;;17.30;;
18176;SDS011;9213;50.858;3.964;2023-04-24T06:47:05;32.97;;;17.03;;
18176;SDS011;9213;50.858;3.964;2023-04-24T06:49:34;26.90;;;16.30;;
18176;SDS011;9213;50.858;3.964;2023-04-24T06:52:01;27.47;;;16.43;;
18176;SDS011;9213;50.858;3.964;2023-04-24T06:54:28;28.77;;;16.10;;
18176;SDS011;9213;50.858;3.964;2023-04-24T06:56:56;29.97;;;17.03;;
18176;SDS011;9213;50.858;3.964;2023-04-24T06:59:23;22.77;;;16.10;;
18176;SDS011;9213;50.858;3.964;2023-04-24T07:01:50;34.70;;;16.50;;
18176;SDS011;9213;50.858;3.964;2023-04-24T07:04:17;26.47;;;15.63;;
18176;SDS011;9213;50.858;3.964;2023-04-24T07:06:46;27.43;;;16.27;;
18176;SDS011;9213;50.858;3.964;2023-04-24T07:09:14;29.07;;;15.90;;
18176;SDS011;9213;50.858;3.964;2023-04-24T07:11:43;24.60;;;16.23;;
18176;SDS011;9213;50.858;3.964;2023-04-24T07:14:10;23.63;;;16.20;;
18176;SDS011;9213;50.858;3.964;2023-04-24T07:16:37;28.97;;;15.23;;
18176;SDS011;9213;50.858;3.964;2023-04-24T07:19:04;26.07;;;15.03;;
18176;SDS011;9213;50.858;3.964;2023-04-24T07:21:31;24.97;;;14.77;;
18176;SDS011;9213;50.858;3.964;2023-04-24T07:23:59;20.37;;;12.13;;
18176;SDS011;9213;50.858;3.964;2023-04-24T07:26:26;22.97;;;12.37;;
18176;SDS011;9213;50.858;3.964;2023-04-24T07:28:54;18.27;;;11.40;;
18176;SDS011;9213;50.858;3.964;2023-04-24T07:31:21;18.83;;;11.07;;
18176;SDS011;9213;50.858;3.964;2023-04-24T07:33:48;19.73;;;12.07;;
18176;SDS011;9213;50.858;3.964;2023-04-24T07:36:15;17.20;;;10.90;;
18176;SDS011;9213;50.858;3.964;2023-04-24T07:38:44;21.50;;;11.50;;
18176;SDS011;9213;50.858;3.964;2023-04-24T07:41:12;16.37;;;10.93;;
18176;SDS011;9213;50.858;3.964;2023-04-24T07:43:39;16.47;;;10.87;;
18176;SDS011;9213;50.858;3.964;2023-04-24T07:46:07;17.27;;;10.93;;
18176;SDS011;9213;50.858;3.964;2023-04-24T07:48:34;16.60;;;10.00;;
18176;SDS011;9213;50.858;3.964;2023-04-24T07:51:01;20.20;;;9.70;;
18176;SDS011;9213;50.858;3.964;2023-04-24T07:53:28;18.10;;;9.43;;
18176;SDS011;9213;50.858;3.964;2023-04-24T07:55:55;16.70;;;9.83;;
18176;SDS011;9213;50.858;3.964;2023-04-24T07:58:23;16.47;;;9.23;;
18176;SDS011;9213;50.858;3.964;2023-04-24T08:00:50;18.50;;;9.03;;
18176;SDS011;9213;50.858;3.964;2023-04-24T08:03:17;18.50;;;9.20;;
18176;SDS011;9213;50.858;3.964;2023-04-24T08:05:45;16.17;;;9.43;;
18176;SDS011;9213;50.858;3.964;2023-04-24T08:08:12;13.67;;;8.60;;
18176;SDS011;9213;50.858;3.964;2023-04-24T08:10:39;10.43;;;7.23;;
18176;SDS011;9213;50.858;3.964;2023-04-24T08:13:06;11.67;;;6.90;;
18176;SDS011;9213;50.858;3.964;2023-04-24T08:15:34;13.13;;;6.77;;
18176;SDS011;9213;50.858;3.964;2023-04-24T08:18:01;12.43;;;6.83;;
18176;SDS011;9213;50.858;3.964;2023-04-24T08:20:28;11.07;;;6.57;;
18176;SDS011;9213;50.858;3.964;2023-04-24T08:22:55;14.27;;;6.80;;
18176;SDS011;9213;50.858;3.964;2023-04-24T08:25:22;10.23;;;6.40;;
18176;SDS011;9213;50.858;3.964;2023-04-24T08:27:49;10.00;;;5.70;;
18176;SDS011;9213;50.858;3.964;2023-04-24T08:30:17;7.63;;;4.97;;
18176;SDS011;9213;50.858;3.964;2023-04-24T08:32:45;9.60;;;4.90;;
18176;SDS011;9213;50.858;3.964;2023-04-24T08:35:12;9.93;;;5.37;;
18176;SDS011;9213;50.858;3.964;2023-04-24T08:37:39;11.60;;;5.20;;
18176;SDS011;9213;50.858;3.964;2023-04-24T08:40:09;10.70;;;4.87;;
18176;SDS011;9213;50.858;3.964;2023-04-24T08:42:40;8.83;;;5.43;;
18176;SDS011;9213;50.858;3.964;2023-04-24T08:45:09;9.97;;;5.27;;
18176;SDS011;9213;50.858;3.964;2023-04-24T08:47:37;11.70;;;5.37;;
18176;SDS011;9213;50.858;3.964;2023-04-24T08:50:08;7.30;;;5.57;;
18176;SDS011;9213;50.858;3.964;2023-04-24T08:52:35;8.20;;;5.27;;
18176;SDS011;9213;50.858;3.964;2023-04-24T08:55:03;14.50;;;5.90;;
18176;SDS011;9213;50.858;3.964;2023-04-24T08:57:30;7.73;;;5.37;;
18176;SDS011;9213;50.858;3.964;2023-04-24T08:59:58;8.30;;;5.27;;
18176;SDS011;9213;50.858;3.964;2023-04-24T09:02:26;10.10;;;5.57;;
18176;SDS011;9213;50.858;3.964;2023-04-24T09:04:54;8.27;;;5.10;;
18176;SDS011;9213;50.858;3.964;2023-04-24T09:07:24;11.27;;;5.67;;
18176;SDS011;9213;50.858;3.964;2023-04-24T09:09:52;10.97;;;5.30;;
18176;SDS011;9213;50.858;3.964;2023-04-24T09:12:19;8.57;;;5.13;;
18176;SDS011;9213;50.858;3.964;2023-04-24T09:14:46;12.10;;;5.37;;
18176;SDS011;9213;50.858;3.964;2023-04-24T09:17:15;12.87;;;5.50;;
18176;SDS011;9213;50.858;3.964;2023-04-24T09:19:42;9.30;;;4.77;;
18176;SDS011;9213;50.858;3.964;2023-04-24T09:22:09;8.93;;;5.17;;
18176;SDS011;9213;50.858;3.964;2023-04-24T09:24:38;11.70;;;5.07;;
18176;SDS011;9213;50.858;3.964;2023-04-24T09:27:05;10.63;;;5.20;;
18176;SDS011;9213;50.858;3.964;2023-04-24T09:29:33;7.90;;;5.80;;
18176;SDS011;9213;50.858;3.964;2023-04-24T09:32:01;9.47;;;4.93;;
18176;SDS011;9213;50.858;3.964;2023-04-24T09:34:46;9.13;;;5.23;;
18176;SDS011;9213;50.858;3.964;2023-04-24T09:37:18;10.30;;;5.50;;
18176;SDS011;9213;50.858;3.964;2023-04-24T09:40:08;9.10;;;5.40;;
18176;SDS011;9213;50.858;3.964;2023-04-24T09:42:38;10.33;;;5.27;;
18176;SDS011;9213;50.858;3.964;2023-04-24T09:45:08;16.53;;;6.33;;
18176;SDS011;9213;50.858;3.964;2023-04-24T09:47:36;12.00;;;6.17;;
18176;SDS011;9213;50.858;3.964;2023-04-24T09:50:10;10.03;;;6.20;;
18176;SDS011;9213;50.858;3.964;2023-04-24T09:52:42;11.30;;;6.20;;
18176;SDS011;9213;50.858;3.964;2023-04-24T09:55:15;9.07;;;6.10;;
18176;SDS011;9213;50.858;3.964;2023-04-24T09:57:48;8.37;;;5.73;;
18176;SDS011;9213;50.858;3.964;2023-04-24T10:00:21;11.63;;;6.33;;
18176;SDS011;9213;50.858;3.964;2023-04-24T10:02:50;9.87;;;5.93;;
18176;SDS011;9213;50.858;3.964;2023-04-24T10:05:22;8.37;;;5.57;;
18176;SDS011;9213;50.858;3.964;2023-04-24T10:07:51;8.23;;;5.80;;
18176;SDS011;9213;50.858;3.964;2023-04-24T10:10:19;9.87;;;6.07;;
18176;SDS011;9213;50.858;3.964;2023-04-24T10:12:46;9.03;;;5.60;;
18176;SDS011;9213;50.858;3.964;2023-04-24T10:15:13;10.40;;;6.10;;
18176;SDS011;9213;50.858;3.964;2023-04-24T10:17:45;10.23;;;6.17;;
18176;SDS011;9213;50.858;3.964;2023-04-24T10:20:17;9.30;;;6.67;;
18176;SDS011;9213;50.858;3.964;2023-04-24T10:22:46;12.40;;;6.47;;
18176;SDS011;9213;50.858;3.964;2023-04-24T10:25:16;10.70;;;6.17;;
18176;SDS011;9213;50.858;3.964;2023-04-24T10:27:47;7.77;;;6.20;;
18176;SDS011;9213;50.858;3.964;2023-04-24T10:30:15;10.63;;;6.70;;
18176;SDS011;9213;50.858;3.964;2023-04-24T10:32:42;9.50;;;6.07;;
18176;SDS011;9213;50.858;3.964;2023-04-24T10:35:10;11.03;;;6.67;;
18176;SDS011;9213;50.858;3.964;2023-04-24T10:37:40;10.00;;;5.70;;
18176;SDS011;9213;50.858;3.964;2023-04-24T10:40:10;7.93;;;5.97;;
18176;SDS011;9213;50.858;3.964;2023-04-24T10:42:40;12.13;;;5.87;;
18176;SDS011;9213;50.858;3.964;2023-04-24T10:45:15;12.17;;;6.60;;
18176;SDS011;9213;50.858;3.964;2023-04-24T10:47:50;9.30;;;6.70;;
18176;SDS011;9213;50.858;3.964;2023-04-24T10:50:18;9.60;;;6.67;;
18176;SDS011;9213;50.858;3.964;2023-04-24T10:52:46;13.50;;;6.97;;
18176;SDS011;9213;50.858;3.964;2023-04-24T10:55:13;10.87;;;7.00;;
18176;SDS011;9213;50.858;3.964;2023-04-24T10:58:00;11.63;;;7.00;;
18176;SDS011;9213;50.858;3.964;2023-04-24T11:00:28;11.83;;;7.13;;
18176;SDS011;9213;50.858;3.964;2023-04-24T11:02:55;13.07;;;7.40;;
18176;SDS011;9213;50.858;3.964;2023-04-24T11:05:48;11.50;;;7.07;;
18176;SDS011;9213;50.858;3.964;2023-04-24T11:08:21;10.27;;;6.80;;
18176;SDS011;9213;50.858;3.964;2023-04-24T11:10:56;9.63;;;7.03;;
18176;SDS011;9213;50.858;3.964;2023-04-24T11:13:27;10.70;;;6.80;;
18176;SDS011;9213;50.858;3.964;2023-04-24T11:16:15;9.87;;;6.87;;
18176;SDS011;9213;50.858;3.964;2023-04-24T11:18:49;12.13;;;6.67;;
18176;SDS011;9213;50.858;3.964;2023-04-24T11:21:19;12.67;;;6.90;;
18176;SDS011;9213;50.858;3.964;2023-04-24T11:23:48;7.77;;;6.83;;
18176;SDS011;9213;50.858;3.964;2023-04-24T11:26:17;10.00;;;7.23;;
18176;SDS011;9213;50.858;3.964;2023-04-24T11:28:47;9.23;;;6.67;;
18176;SDS011;9213;50.858;3.964;2023-04-24T11:34:05;13.37;;;7.50;;
18176;SDS011;9213;50.858;3.964;2023-04-24T11:36:33;11.40;;;7.80;;
18176;SDS011;9213;50.858;3.964;2023-04-24T11:39:00;12.37;;;7.97;;
18176;SDS011;9213;50.858;3.964;2023-04-24T11:41:28;10.30;;;7.67;;
18176;SDS011;9213;50.858;3.964;2023-04-24T11:43:57;9.80;;;7.50;;
18176;SDS011;9213;50.858;3.964;2023-04-24T11:46:26;7.87;;;7.10;;
18176;SDS011;9213;50.858;3.964;2023-04-24T11:48:55;9.60;;;6.90;;
18176;SDS011;9213;50.858;3.964;2023-04-24T11:51:22;10.03;;;7.10;;
18176;SDS011;9213;50.858;3.964;2023-04-24T11:53:50;10.93;;;7.20;;
18176;SDS011;9213;50.858;3.964;2023-04-24T11:56:17;8.83;;;8.03;;
18176;SDS011;9213;50.858;3.964;2023-04-24T11:58:45;8.67;;;7.30;;
18176;SDS011;9213;50.858;3.964;2023-04-24T12:01:14;9.23;;;6.67;;
18176;SDS011;9213;50.858;3.964;2023-04-24T12:03:41;7.67;;;6.67;;
18176;SDS011;9213;50.858;3.964;2023-04-24T12:06:11;9.37;;;6.90;;
18176;SDS011;9213;50.858;3.964;2023-04-24T12:08:38;9.30;;;7.23;;
18176;SDS011;9213;50.858;3.964;2023-04-24T12:11:06;7.40;;;6.73;;
18176;SDS011;9213;50.858;3.964;2023-04-24T12:13:34;6.73;;;5.80;;
18176;SDS011;9213;50.858;3.964;2023-04-24T12:16:02;7.03;;;6.27;;
18176;SDS011;9213;50.858;3.964;2023-04-24T12:18:31;8.20;;;5.83;;
18176;SDS011;9213;50.858;3.964;2023-04-24T12:23:44;8.43;;;6.20;;
18176;SDS011;9213;50.858;3.964;2023-04-24T12:26:12;8.77;;;5.83;;
18176;SDS011;9213;50.858;3.964;2023-04-24T12:28:41;5.50;;;4.90;;
18176;SDS011;9213;50.858;3.964;2023-04-24T12:31:09;6.07;;;5.05;;
18176;SDS011;9213;50.858;3.964;2023-04-24T12:33:37;5.23;;;4.60;;
18176;SDS011;9213;50.858;3.964;2023-04-24T12:36:04;8.17;;;4.90;;
18176;SDS011;9213;50.858;3.964;2023-04-24T12:38:31;8.53;;;5.33;;
18176;SDS011;9213;50.858;3.964;2023-04-24T12:41:05;5.70;;;4.37;;
18176;SDS011;9213;50.858;3.964;2023-04-24T12:43:33;6.90;;;4.70;;
18176;SDS011;9213;50.858;3.964;2023-04-24T12:46:00;5.43;;;4.77;;
18176;SDS011;9213;50.858;3.964;2023-04-24T12:48:28;7.63;;;4.70;;
18176;SDS011;9213;50.858;3.964;2023-04-24T12:50:57;7.17;;;4.57;;
18176;SDS011;9213;50.858;3.964;2023-04-24T12:53:26;6.43;;;4.70;;
18176;SDS011;9213;50.858;3.964;2023-04-24T12:55:56;5.83;;;4.30;;
18176;SDS011;9213;50.858;3.964;2023-04-24T12:58:23;5.23;;;4.07;;
18176;SDS011;9213;50.858;3.964;2023-04-24T13:00:50;5.63;;;4.23;;
18176;SDS011;9213;50.858;3.964;2023-04-24T13:03:17;4.13;;;3.70;;
18176;SDS011;9213;50.858;3.964;2023-04-24T13:05:44;4.40;;;3.65;;
18176;SDS011;9213;50.858;3.964;2023-04-24T13:08:13;4.00;;;3.63;;
18176;SDS011;9213;50.858;3.964;2023-04-24T13:10:40;6.80;;;4.00;;
18176;SDS011;9213;50.858;3.964;2023-04-24T13:13:06;7.47;;;3.40;;
18176;SDS011;9213;50.858;3.964;2023-04-24T13:15:34;4.43;;;3.55;;
18176;SDS011;9213;50.858;3.964;2023-04-24T13:18:01;4.67;;;3.37;;
18176;SDS011;9213;50.858;3.964;2023-04-24T13:20:27;5.90;;;4.00;;
18176;SDS011;9213;50.858;3.964;2023-04-24T13:22:54;4.50;;;3.80;;
18176;SDS011;9213;50.858;3.964;2023-04-24T13:25:23;9.20;;;3.70;;
18176;SDS011;9213;50.858;3.964;2023-04-24T13:27:50;7.17;;;3.90;;
18176;SDS011;9213;50.858;3.964;2023-04-24T13:30:17;4.85;;;3.35;;
18176;SDS011;9213;50.858;3.964;2023-04-24T13:32:44;3.78;;;3.15;;
18176;SDS011;9213;50.858;3.964;2023-04-24T13:35:11;4.20;;;2.75;;
18176;SDS011;9213;50.858;3.964;2023-04-24T13:37:38;4.25;;;2.50;;
18176;SDS011;9213;50.858;3.964;2023-04-24T13:40:05;4.00;;;3.10;;
18176;SDS011;9213;50.858;3.964;2023-04-24T13:42:34;4.93;;;3.00;;
18176;SDS011;9213;50.858;3.964;2023-04-24T13:45:01;5.78;;;3.00;;
18176;SDS011;9213;50.858;3.964;2023-04-24T13:47:29;6.68;;;3.17;;
18176;SDS011;9213;50.858;3.964;2023-04-24T13:49:56;3.10;;;2.35;;
18176;SDS011;9213;50.858;3.964;2023-04-24T13:52:23;4.05;;;2.60;;
18176;SDS011;9213;50.858;3.964;2023-04-24T13:54:50;4.55;;;2.15;;
18176;SDS011;9213;50.858;3.964;2023-04-24T13:57:17;4.80;;;2.47;;
18176;SDS011;9213;50.858;3.964;2023-04-24T13:59:45;3.95;;;2.38;;
18176;SDS011;9213;50.858;3.964;2023-04-24T14:02:12;3.93;;;2.03;;
18176;SDS011;9213;50.858;3.964;2023-04-24T14:04:39;3.53;;;2.33;;
18176;SDS011;9213;50.858;3.964;2023-04-24T14:07:05;2.40;;;2.03;;
18176;SDS011;9213;50.858;3.964;2023-04-24T14:09:33;5.30;;;2.47;;
18176;SDS011;9213;50.858;3.964;2023-04-24T14:12:00;5.78;;;2.28;;
18176;SDS011;9213;50.858;3.964;2023-04-24T14:14:28;5.05;;;2.55;;
18176;SDS011;9213;50.858;3.964;2023-04-24T14:16:57;6.13;;;2.60;;
18176;SDS011;9213;50.858;3.964;2023-04-24T14:19:24;3.60;;;2.33;;
18176;SDS011;9213;50.858;3.964;2023-04-24T14:21:51;4.38;;;2.60;;
18176;SDS011;9213;50.858;3.964;2023-04-24T14:24:18;4.00;;;2.40;;
18176;SDS011;9213;50.858;3.964;2023-04-24T14:26:45;2.70;;;2.42;;
18176;SDS011;9213;50.858;3.964;2023-04-24T14:29:12;4.13;;;2.10;;
18176;SDS011;9213;50.858;3.964;2023-04-24T14:31:39;4.93;;;2.53;;
18176;SDS011;9213;50.858;3.964;2023-04-24T14:34:08;2.67;;;2.35;;
18176;SDS011;9213;50.858;3.964;2023-04-24T14:36:35;5.60;;;2.17;;
18176;SDS011;9213;50.858;3.964;2023-04-24T14:39:02;2.42;;;2.10;;
18176;SDS011;9213;50.858;3.964;2023-04-24T14:41:31;4.23;;;2.17;;
18176;SDS011;9213;50.858;3.964;2023-04-24T14:44:00;3.35;;;2.13;;
18176;SDS011;9213;50.858;3.964;2023-04-24T14:46:27;2.30;;;2.10;;
18176;SDS011;9213;50.858;3.964;2023-04-24T14:48:55;4.57;;;1.80;;
18176;SDS011;9213;50.858;3.964;2023-04-24T14:51:24;3.03;;;1.73;;
18176;SDS011;9213;50.858;3.964;2023-04-24T14:53:51;3.42;;;1.70;;
18176;SDS011;9213;50.858;3.964;2023-04-24T14:56:19;1.90;;;1.80;;
18176;SDS011;9213;50.858;3.964;2023-04-24T14:58:45;3.27;;;1.60;;